TAM3208 SBGR-SBUL
Flight info
| Callsign | TAM3208 |
|---|---|
| Flight time | 0h 50m |
| Altitude | 36000 |
| Route | ISMOB UZ26 KEXIT |
| Aircraft | A319/M-SDE3FGHIRWY/LB1 |
Departure
| Time | 2026-05-04 20:51 |
|---|---|
| Airport | São Paulo/Guarulhos–Governor André Franco Montoro International Airport (SBGR) |
Arrival
| Time | 2026-05-04 21:42 |
|---|---|
| Airport | Ten. Cel. Aviador César Bombonato Airport (SBUL) |
| Time | Latitude | Longitude | Altitude | Speed | Heading |
|---|---|---|---|---|---|
| 2026-05-04 20:32 | -23.42822 | -46.48355 | 2469 ft | 0 kts | 86° |
| 2026-05-04 20:44 | -23.42822 | -46.48358 | 2468 ft | 2 kts | 86° |
| 2026-05-04 20:44 | -23.42823 | -46.48375 | 2468 ft | 2 kts | 86° |
| 2026-05-04 20:45 | -23.42824 | -46.48391 | 2468 ft | 2 kts | 86° |
| 2026-05-04 20:45 | -23.42825 | -46.48407 | 2468 ft | 2 kts | 90° |
| 2026-05-04 20:45 | -23.42820 | -46.48422 | 2468 ft | 2 kts | 134° |
| 2026-05-04 20:45 | -23.42807 | -46.48430 | 2468 ft | 1 kts | 171° |
| 2026-05-04 20:46 | -23.42800 | -46.48431 | 2468 ft | 1 kts | 185° |
| 2026-05-04 20:46 | -23.42797 | -46.48431 | 2468 ft | 0 kts | 180° |
| 2026-05-04 20:48 | -23.42812 | -46.48431 | 2468 ft | 4 kts | 185° |
| 2026-05-04 20:48 | -23.42853 | -46.48444 | 2468 ft | 6 kts | 195° |
| 2026-05-04 20:48 | -23.42898 | -46.48450 | 2468 ft | 6 kts | 181° |
| 2026-05-04 20:49 | -23.42940 | -46.48452 | 2468 ft | 5 kts | 180° |
| 2026-05-04 20:49 | -23.42996 | -46.48452 | 2468 ft | 10 kts | 180° |
| 2026-05-04 20:49 | -23.43065 | -46.48441 | 2468 ft | 10 kts | 164° |
| 2026-05-04 20:49 | -23.43161 | -46.48412 | 2468 ft | 15 kts | 163° |
| 2026-05-04 20:50 | -23.43259 | -46.48380 | 2468 ft | 14 kts | 163° |
| 2026-05-04 20:50 | -23.43350 | -46.48352 | 2468 ft | 13 kts | 163° |
| 2026-05-04 20:50 | -23.43415 | -46.48298 | 2468 ft | 11 kts | 97° |
| 2026-05-04 20:50 | -23.43371 | -46.48119 | 2468 ft | 53 kts | 73° |
| 2026-05-04 20:51 | -23.43198 | -46.47479 | 2469 ft | 119 kts | 73° |
| 2026-05-04 20:51 | -23.42912 | -46.46419 | 2478 ft | 171 kts | 73° |
| 2026-05-04 20:51 | -23.42566 | -46.45157 | 3026 ft | 172 kts | 73° |
| 2026-05-04 20:51 | -23.42034 | -46.43991 | 3565 ft | 180 kts | 46° |
| 2026-05-04 20:52 | -23.41066 | -46.43045 | 4018 ft | 195 kts | 38° |
| 2026-05-04 20:52 | -23.39950 | -46.42080 | 4441 ft | 216 kts | 37° |
| 2026-05-04 20:52 | -23.38722 | -46.41010 | 4950 ft | 236 kts | 37° |
| 2026-05-04 20:52 | -23.37429 | -46.39820 | 5571 ft | 251 kts | 40° |
| 2026-05-04 20:53 | -23.36161 | -46.38466 | 6258 ft | 263 kts | 40° |
| 2026-05-04 20:53 | -23.34625 | -46.37405 | 6883 ft | 271 kts | 12° |
| 2026-05-04 20:53 | -23.32821 | -46.37485 | 7951 ft | 260 kts | 337° |
| 2026-05-04 20:53 | -23.31296 | -46.38397 | 9068 ft | 250 kts | 328° |
| 2026-05-04 20:54 | -23.29763 | -46.39354 | 9683 ft | 262 kts | 329° |
| 2026-05-04 20:54 | -23.28099 | -46.40328 | 10155 ft | 280 kts | 330° |
| 2026-05-04 20:54 | -23.26310 | -46.41334 | 10607 ft | 298 kts | 331° |
| 2026-05-04 20:54 | -23.24410 | -46.42382 | 11151 ft | 311 kts | 331° |
| 2026-05-04 20:55 | -23.22460 | -46.43444 | 11911 ft | 316 kts | 331° |
| 2026-05-04 20:55 | -23.20482 | -46.44513 | 12659 ft | 320 kts | 331° |
| 2026-05-04 20:55 | -23.18478 | -46.45592 | 13387 ft | 324 kts | 331° |
| 2026-05-04 20:55 | -23.16451 | -46.46683 | 14094 ft | 327 kts | 331° |
| 2026-05-04 20:56 | -23.14400 | -46.47784 | 14791 ft | 330 kts | 330° |
| 2026-05-04 20:56 | -23.12330 | -46.48895 | 15468 ft | 333 kts | 330° |
| 2026-05-04 20:56 | -23.10244 | -46.50013 | 16147 ft | 336 kts | 330° |
| 2026-05-04 20:56 | -23.08143 | -46.51139 | 16799 ft | 338 kts | 330° |
| 2026-05-04 20:57 | -23.06053 | -46.52260 | 17419 ft | 341 kts | 330° |
| 2026-05-04 20:57 | -23.03901 | -46.53413 | 18038 ft | 344 kts | 330° |
| 2026-05-04 20:57 | -23.01742 | -46.54571 | 18629 ft | 348 kts | 329° |
| 2026-05-04 20:57 | -22.99547 | -46.55747 | 19208 ft | 352 kts | 329° |
| 2026-05-04 20:58 | -22.97335 | -46.56931 | 19779 ft | 357 kts | 329° |
| 2026-05-04 20:58 | -22.95096 | -46.58129 | 20337 ft | 361 kts | 329° |
| 2026-05-04 20:58 | -22.92829 | -46.59341 | 20890 ft | 365 kts | 329° |
| 2026-05-04 20:58 | -22.90572 | -46.60547 | 21438 ft | 368 kts | 329° |
| 2026-05-04 20:59 | -22.88233 | -46.61797 | 21998 ft | 372 kts | 329° |
| 2026-05-04 20:59 | -22.85917 | -46.63035 | 22529 ft | 375 kts | 329° |
| 2026-05-04 20:59 | -22.83564 | -46.64290 | 23062 ft | 378 kts | 329° |
| 2026-05-04 20:59 | -22.81180 | -46.65560 | 23593 ft | 382 kts | 329° |
| 2026-05-04 21:00 | -22.78804 | -46.66826 | 24131 ft | 384 kts | 329° |
| 2026-05-04 21:00 | -22.76394 | -46.68111 | 24654 ft | 387 kts | 328° |
| 2026-05-04 21:00 | -22.73967 | -46.69403 | 25181 ft | 389 kts | 328° |
| 2026-05-04 21:00 | -22.71526 | -46.70702 | 25688 ft | 392 kts | 328° |
| 2026-05-04 21:01 | -22.69068 | -46.72011 | 26185 ft | 394 kts | 327° |
| 2026-05-04 21:01 | -22.66594 | -46.73329 | 26660 ft | 397 kts | 327° |
| 2026-05-04 21:01 | -22.64102 | -46.74655 | 27116 ft | 400 kts | 327° |
| 2026-05-04 21:01 | -22.61595 | -46.75990 | 27574 ft | 402 kts | 327° |
| 2026-05-04 21:02 | -22.59075 | -46.77330 | 28038 ft | 404 kts | 327° |
| 2026-05-04 21:02 | -22.56542 | -46.78676 | 28493 ft | 406 kts | 326° |
| 2026-05-04 21:02 | -22.53996 | -46.80029 | 28934 ft | 408 kts | 326° |
| 2026-05-04 21:02 | -22.51439 | -46.81388 | 29348 ft | 410 kts | 326° |
| 2026-05-04 21:03 | -22.48867 | -46.82755 | 29772 ft | 412 kts | 326° |
| 2026-05-04 21:03 | -22.46319 | -46.84106 | 30150 ft | 415 kts | 326° |
| 2026-05-04 21:03 | -22.43716 | -46.85489 | 30517 ft | 418 kts | 326° |
| 2026-05-04 21:03 | -22.41097 | -46.86878 | 30883 ft | 420 kts | 326° |
| 2026-05-04 21:04 | -22.38461 | -46.88277 | 31226 ft | 423 kts | 326° |
| 2026-05-04 21:04 | -22.35816 | -46.89678 | 31666 ft | 423 kts | 326° |
| 2026-05-04 21:04 | -22.33175 | -46.91073 | 32165 ft | 421 kts | 326° |
| 2026-05-04 21:04 | -22.30546 | -46.92462 | 32654 ft | 419 kts | 326° |
| 2026-05-04 21:05 | -22.27924 | -46.93848 | 33110 ft | 418 kts | 325° |
| 2026-05-04 21:05 | -22.25308 | -46.95231 | 33532 ft | 418 kts | 325° |
| 2026-05-04 21:05 | -22.22696 | -46.96614 | 33966 ft | 417 kts | 325° |
| 2026-05-04 21:05 | -22.20089 | -46.97992 | 34427 ft | 416 kts | 325° |
| 2026-05-04 21:06 | -22.17530 | -46.99345 | 34856 ft | 415 kts | 325° |
| 2026-05-04 21:06 | -22.14928 | -47.00720 | 35194 ft | 416 kts | 325° |
| 2026-05-04 21:06 | -22.12318 | -47.02100 | 35486 ft | 418 kts | 325° |
| 2026-05-04 21:06 | -22.09702 | -47.03483 | 35810 ft | 419 kts | 325° |
| 2026-05-04 21:07 | -22.07080 | -47.04867 | 36098 ft | 420 kts | 325° |
| 2026-05-04 21:07 | -22.04442 | -47.06258 | 36124 ft | 422 kts | 325° |
| 2026-05-04 21:07 | -21.99156 | -47.09042 | 36124 ft | 422 kts | 325° |
| 2026-05-04 21:08 | -21.93872 | -47.11825 | 36124 ft | 422 kts | 326° |
| 2026-05-04 21:08 | -21.88593 | -47.14603 | 36123 ft | 422 kts | 325° |
| 2026-05-04 21:09 | -21.83243 | -47.17253 | 36128 ft | 426 kts | 329° |
| 2026-05-04 21:09 | -21.77567 | -47.19307 | 36128 ft | 433 kts | 336° |
| 2026-05-04 21:10 | -21.71627 | -47.20645 | 36132 ft | 438 kts | 343° |
| 2026-05-04 21:10 | -21.65563 | -47.21457 | 36140 ft | 438 kts | 345° |
| 2026-05-04 21:11 | -21.59500 | -47.22244 | 36134 ft | 438 kts | 345° |
| 2026-05-04 21:11 | -21.53436 | -47.23038 | 36133 ft | 438 kts | 345° |
| 2026-05-04 21:12 | -21.47414 | -47.23830 | 36128 ft | 438 kts | 345° |
| 2026-05-04 21:12 | -21.41347 | -47.24627 | 36143 ft | 438 kts | 345° |
| 2026-05-04 21:13 | -21.35282 | -47.25428 | 36160 ft | 437 kts | 344° |
| 2026-05-04 21:13 | -21.29268 | -47.26415 | 36165 ft | 435 kts | 343° |
| 2026-05-04 21:14 | -21.23269 | -47.27438 | 36180 ft | 435 kts | 343° |
| 2026-05-04 21:14 | -21.17273 | -47.28450 | 36176 ft | 435 kts | 343° |
| 2026-05-04 21:15 | -21.11275 | -47.29452 | 36174 ft | 435 kts | 343° |
| 2026-05-04 21:15 | -21.05326 | -47.30445 | 36169 ft | 435 kts | 343° |
| 2026-05-04 21:16 | -20.99329 | -47.31443 | 36162 ft | 434 kts | 343° |
| 2026-05-04 21:16 | -20.93330 | -47.32442 | 36169 ft | 435 kts | 343° |
| 2026-05-04 21:17 | -20.87289 | -47.33450 | 36172 ft | 442 kts | 343° |
| 2026-05-04 21:17 | -20.81206 | -47.34462 | 36176 ft | 446 kts | 343° |
| 2026-05-04 21:18 | -20.75056 | -47.35481 | 36177 ft | 446 kts | 343° |
| 2026-05-04 21:18 | -20.68911 | -47.36500 | 36173 ft | 445 kts | 343° |
| 2026-05-04 21:19 | -20.62838 | -47.37735 | 36178 ft | 440 kts | 338° |
| 2026-05-04 21:19 | -20.57071 | -47.39771 | 36178 ft | 432 kts | 329° |
| 2026-05-04 21:20 | -20.51756 | -47.42554 | 36144 ft | 421 kts | 322° |
| 2026-05-04 21:20 | -20.49270 | -47.44149 | 35781 ft | 415 kts | 320° |
| 2026-05-04 21:20 | -20.46812 | -47.45767 | 34984 ft | 417 kts | 321° |
| 2026-05-04 21:21 | -20.44331 | -47.47407 | 34069 ft | 423 kts | 321° |
| 2026-05-04 21:21 | -20.41821 | -47.49064 | 33171 ft | 427 kts | 321° |
| 2026-05-04 21:21 | -20.39286 | -47.50729 | 32383 ft | 430 kts | 322° |
| 2026-05-04 21:21 | -20.36733 | -47.52402 | 31601 ft | 432 kts | 322° |
| 2026-05-04 21:22 | -20.34170 | -47.54078 | 30848 ft | 433 kts | 322° |
| 2026-05-04 21:22 | -20.31599 | -47.55758 | 30128 ft | 433 kts | 323° |
| 2026-05-04 21:22 | -20.29042 | -47.57427 | 29597 ft | 428 kts | 323° |
| 2026-05-04 21:22 | -20.26511 | -47.59078 | 29070 ft | 424 kts | 323° |
| 2026-05-04 21:23 | -20.24004 | -47.60710 | 28514 ft | 421 kts | 323° |
| 2026-05-04 21:23 | -20.21513 | -47.62336 | 27921 ft | 418 kts | 323° |
| 2026-05-04 21:23 | -20.19073 | -47.63929 | 27344 ft | 416 kts | 323° |
| 2026-05-04 21:23 | -20.16601 | -47.65541 | 26750 ft | 414 kts | 323° |
| 2026-05-04 21:24 | -20.14145 | -47.67144 | 26155 ft | 412 kts | 323° |
| 2026-05-04 21:24 | -20.11703 | -47.68735 | 25569 ft | 411 kts | 324° |
| 2026-05-04 21:24 | -20.09271 | -47.70320 | 24994 ft | 409 kts | 324° |
| 2026-05-04 21:24 | -20.06850 | -47.71898 | 24425 ft | 407 kts | 324° |
| 2026-05-04 21:25 | -20.04439 | -47.73468 | 23873 ft | 405 kts | 324° |
| 2026-05-04 21:25 | -20.02038 | -47.75031 | 23329 ft | 403 kts | 324° |
| 2026-05-04 21:25 | -19.99676 | -47.76568 | 22807 ft | 400 kts | 324° |
| 2026-05-04 21:25 | -19.97302 | -47.78112 | 22285 ft | 399 kts | 324° |
| 2026-05-04 21:26 | -19.94940 | -47.79649 | 21801 ft | 396 kts | 325° |
| 2026-05-04 21:26 | -19.92593 | -47.81176 | 21348 ft | 393 kts | 325° |
| 2026-05-04 21:26 | -19.90268 | -47.82685 | 20901 ft | 390 kts | 325° |
| 2026-05-04 21:26 | -19.87952 | -47.84188 | 20462 ft | 386 kts | 325° |
| 2026-05-04 21:27 | -19.85669 | -47.85670 | 20035 ft | 382 kts | 325° |
| 2026-05-04 21:27 | -19.83438 | -47.87118 | 19616 ft | 379 kts | 326° |
| 2026-05-04 21:27 | -19.81195 | -47.88573 | 19200 ft | 375 kts | 326° |
| 2026-05-04 21:27 | -19.78973 | -47.90013 | 18775 ft | 372 kts | 326° |
| 2026-05-04 21:28 | -19.76770 | -47.91443 | 18353 ft | 369 kts | 326° |
| 2026-05-04 21:28 | -19.74584 | -47.92860 | 17941 ft | 366 kts | 326° |
| 2026-05-04 21:28 | -19.72420 | -47.94263 | 17531 ft | 362 kts | 326° |
| 2026-05-04 21:28 | -19.70273 | -47.95654 | 17125 ft | 359 kts | 326° |
| 2026-05-04 21:29 | -19.68143 | -47.97035 | 16710 ft | 357 kts | 326° |
| 2026-05-04 21:29 | -19.66024 | -47.98407 | 16285 ft | 355 kts | 326° |
| 2026-05-04 21:29 | -19.63916 | -47.99771 | 15877 ft | 353 kts | 327° |
| 2026-05-04 21:29 | -19.61820 | -48.01128 | 15452 ft | 351 kts | 327° |
| 2026-05-04 21:30 | -19.59734 | -48.02477 | 15027 ft | 350 kts | 327° |
| 2026-05-04 21:30 | -19.57661 | -48.03818 | 14620 ft | 348 kts | 327° |
| 2026-05-04 21:30 | -19.55625 | -48.05135 | 14204 ft | 347 kts | 328° |
| 2026-05-04 21:30 | -19.53568 | -48.06465 | 13767 ft | 345 kts | 328° |
| 2026-05-04 21:31 | -19.49474 | -48.09110 | 12924 ft | 342 kts | 328° |
| 2026-05-04 21:31 | -19.47440 | -48.10422 | 12532 ft | 341 kts | 328° |
| 2026-05-04 21:31 | -19.45417 | -48.11727 | 12137 ft | 339 kts | 328° |
| 2026-05-04 21:32 | -19.43405 | -48.13026 | 11747 ft | 337 kts | 328° |
| 2026-05-04 21:32 | -19.41408 | -48.14315 | 11373 ft | 334 kts | 329° |
| 2026-05-04 21:32 | -19.39426 | -48.15593 | 10995 ft | 332 kts | 329° |
| 2026-05-04 21:32 | -19.37458 | -48.16861 | 10615 ft | 329 kts | 329° |
| 2026-05-04 21:33 | -19.35500 | -48.18123 | 10229 ft | 327 kts | 329° |
| 2026-05-04 21:33 | -19.33570 | -48.19368 | 10009 ft | 319 kts | 329° |
| 2026-05-04 21:33 | -19.31697 | -48.20575 | 9922 ft | 308 kts | 330° |
| 2026-05-04 21:33 | -19.29902 | -48.21732 | 9863 ft | 296 kts | 330° |
| 2026-05-04 21:34 | -19.28179 | -48.22842 | 9640 ft | 291 kts | 330° |
| 2026-05-04 21:34 | -19.26449 | -48.23956 | 9338 ft | 290 kts | 330° |
| 2026-05-04 21:34 | -19.24722 | -48.25066 | 9005 ft | 290 kts | 330° |
| 2026-05-04 21:34 | -19.22994 | -48.26177 | 8660 ft | 290 kts | 330° |
| 2026-05-04 21:35 | -19.21267 | -48.27288 | 8312 ft | 290 kts | 330° |
| 2026-05-04 21:35 | -19.19541 | -48.28399 | 7959 ft | 290 kts | 330° |
| 2026-05-04 21:35 | -19.17835 | -48.29496 | 7819 ft | 280 kts | 330° |
| 2026-05-04 21:35 | -19.16203 | -48.30547 | 7795 ft | 267 kts | 330° |
| 2026-05-04 21:36 | -19.14646 | -48.31548 | 7759 ft | 255 kts | 331° |
| 2026-05-04 21:36 | -19.13161 | -48.32496 | 7710 ft | 242 kts | 334° |
| 2026-05-04 21:36 | -19.11595 | -48.32931 | 7608 ft | 227 kts | 8° |
| 2026-05-04 21:36 | -19.10117 | -48.32438 | 7413 ft | 221 kts | 26° |
| 2026-05-04 21:37 | -19.08722 | -48.31729 | 7138 ft | 222 kts | 27° |
| 2026-05-04 21:37 | -19.07318 | -48.31024 | 6854 ft | 223 kts | 25° |
| 2026-05-04 21:37 | -19.05894 | -48.30347 | 6578 ft | 224 kts | 24° |
| 2026-05-04 21:37 | -19.04482 | -48.29701 | 6334 ft | 223 kts | 24° |
| 2026-05-04 21:38 | -19.03077 | -48.29071 | 6267 ft | 213 kts | 24° |
| 2026-05-04 21:38 | -19.01738 | -48.28477 | 6169 ft | 205 kts | 24° |
| 2026-05-04 21:38 | -19.00444 | -48.27905 | 5858 ft | 197 kts | 24° |
| 2026-05-04 21:38 | -18.99193 | -48.27353 | 5455 ft | 192 kts | 24° |
| 2026-05-04 21:39 | -18.97977 | -48.26817 | 5077 ft | 186 kts | 24° |
| 2026-05-04 21:39 | -18.96820 | -48.26308 | 4751 ft | 173 kts | 24° |
| 2026-05-04 21:39 | -18.95746 | -48.25838 | 4467 ft | 160 kts | 24° |
| 2026-05-04 21:39 | -18.94758 | -48.25405 | 4250 ft | 146 kts | 24° |
| 2026-05-04 21:40 | -18.93848 | -48.25006 | 4044 ft | 138 kts | 25° |
| 2026-05-04 21:40 | -18.92962 | -48.24617 | 3867 ft | 137 kts | 24° |
| 2026-05-04 21:40 | -18.92080 | -48.24233 | 3700 ft | 136 kts | 24° |
| 2026-05-04 21:40 | -18.91213 | -48.23856 | 3536 ft | 136 kts | 25° |
| 2026-05-04 21:41 | -18.90339 | -48.23465 | 3354 ft | 136 kts | 25° |
| 2026-05-04 21:41 | -18.89461 | -48.23080 | 3160 ft | 133 kts | 25° |
| 2026-05-04 21:41 | -18.88633 | -48.22710 | 3083 ft | 114 kts | 22° |
| 2026-05-04 21:41 | -18.88055 | -48.22459 | 3081 ft | 64 kts | 22° |
| 2026-05-04 21:42 | -18.87794 | -48.22344 | 3078 ft | 23 kts | 22° |
| 2026-05-04 21:42 | -18.87653 | -48.22282 | 3075 ft | 21 kts | 22° |
| 2026-05-04 21:42 | -18.87540 | -48.22238 | 3072 ft | 10 kts | 9° |
| 2026-05-04 21:42 | -18.87503 | -48.22205 | 3071 ft | 3 kts | 39° |
| 2026-05-04 21:43 | -18.87500 | -48.22218 | 3071 ft | 3 kts | 228° |
| 2026-05-04 21:43 | -18.87553 | -48.22241 | 3072 ft | 12 kts | 201° |
| 2026-05-04 21:43 | -18.87663 | -48.22287 | 3075 ft | 20 kts | 202° |
| 2026-05-04 21:43 | -18.87798 | -48.22346 | 3078 ft | 19 kts | 202° |
| 2026-05-04 21:44 | -18.87921 | -48.22400 | 3080 ft | 20 kts | 203° |
| 2026-05-04 21:44 | -18.88051 | -48.22458 | 3081 ft | 19 kts | 202° |
| 2026-05-04 21:44 | -18.88168 | -48.22507 | 3082 ft | 16 kts | 202° |
| 2026-05-04 21:44 | -18.88269 | -48.22554 | 3083 ft | 14 kts | 203° |
| 2026-05-04 21:45 | -18.88386 | -48.22605 | 3083 ft | 20 kts | 203° |
| 2026-05-04 21:45 | -18.88511 | -48.22660 | 3083 ft | 18 kts | 202° |
| 2026-05-04 21:45 | -18.88625 | -48.22710 | 3082 ft | 16 kts | 202° |
| 2026-05-04 21:45 | -18.88728 | -48.22756 | 3082 ft | 14 kts | 204° |
| 2026-05-04 21:46 | -18.88783 | -48.22838 | 3081 ft | 13 kts | 248° |
| 2026-05-04 21:46 | -18.88822 | -48.22918 | 3081 ft | 10 kts | 222° |
| 2026-05-04 21:46 | -18.88881 | -48.22945 | 3080 ft | 8 kts | 199° |
| 2026-05-04 21:46 | -18.88931 | -48.22966 | 3079 ft | 6 kts | 210° |
| 2026-05-04 21:47 | -18.88951 | -48.23004 | 3079 ft | 5 kts | 248° |
| 2026-05-04 21:47 | -18.88959 | -48.23025 | 3079 ft | 1 kts | 248° |
| 2026-05-04 21:47 | -18.88960 | -48.23027 | 3079 ft | 0 kts | 247° |